Time;durP1;ratioP1;P1;durP2;ratioP2;P2;SDS_P1;SDS_P2;PMS_P1;PMS_P2;Temp;Humidity;BMP_temperature;BMP_pressure;BME280_temperature;BME280_humidity;BME280_pressure;Samples;Min_cycle;Max_cycle;Signal;HPM_P1;HPM_P2
2021/09/09 00:02:10;;;;;;;9.13;7.40;;;22.80;99.90;;;;;;5002285;28;20703;-92
2021/09/09 00:04:39;;;;;;;10.17;8.03;;;22.90;99.90;;;;;;4983441;28;20196;-91
2021/09/09 00:07:08;;;;;;;13.30;8.27;;;22.90;99.90;;;;;;4985083;28;20205;-92
2021/09/09 00:10:07;;;;;;;10.70;7.90;;;22.80;99.90;;;;;;4983926;28;20192;-92
2021/09/09 00:12:36;;;;;;;10.53;7.57;;;22.80;99.90;;;;;;4984131;28;20261;-92
2021/09/09 00:15:05;;;;;;;9.03;7.63;;;22.90;99.90;;;;;;4984784;28;20241;-92
2021/09/09 00:17:34;;;;;;;8.77;6.60;;;22.90;99.90;;;;;;4984879;28;20233;-88
2021/09/09 00:20:03;;;;;;;8.03;6.60;;;22.90;99.90;;;;;;5002767;28;20191;-88
2021/09/09 00:25:51;;;;;;;10.17;7.00;;;23.10;65.00;;;;;;5013181;28;20207;-92
2021/09/09 00:31:39;;;;;;;11.30;7.10;;;23.20;1.00;;;;;;4998863;28;20246;-92
2021/09/09 00:34:57;;;;;;;9.13;6.23;;;23.20;1.00;;;;;;4981790;28;20177;-91
2021/09/09 00:37:26;;;;;;;8.10;6.70;;;23.20;1.00;;;;;;4985053;28;20191;-90
2021/09/09 00:39:55;;;;;;;8.03;6.27;;;23.30;1.00;;;;;;5001415;28;20161;-86
2021/09/09 00:42:26;;;;;;;9.17;6.20;;;23.30;1.00;;;;;;5002453;28;20204;-87
2021/09/09 00:44:52;;;;;;;10.00;6.63;;;23.30;99.90;;;;;;5002600;28;20195;-86
2021/09/09 00:50:40;;;;;;;7.30;6.10;;;23.30;1.00;;;;;;5017010;28;20244;-86
2021/09/09 00:53:11;;;;;;;8.20;6.80;;;23.30;1.00;;;;;;5001160;28;20173;-87
2021/09/09 00:59:00;;;;;;;8.47;6.20;;;23.40;1.00;;;;;;5018344;28;20148;-89
2021/09/09 01:01:27;;;;;;;8.27;6.13;;;23.40;99.90;;;;;;5000249;28;20221;-92
2021/09/09 01:03:55;;;;;;;8.80;6.43;;;23.40;99.90;;;;;;5001048;28;20181;-88
2021/09/09 01:06:24;;;;;;;7.33;6.03;;;23.20;99.90;;;;;;5001288;28;20191;-87
2021/09/09 01:08:53;;;;;;;8.20;5.97;;;23.10;1.00;;;;;;5001848;28;20161;-88
2021/09/09 01:11:19;;;;;;;9.00;6.37;;;22.90;99.90;;;;;;5018379;28;20179;-87
2021/09/09 01:14:02;;;;;;;7.07;6.00;;;22.90;99.90;;;;;;5018621;28;20188;-91
2021/09/09 01:16:32;;;;;;;7.37;5.87;;;22.90;43.30;;;;;;5001796;28;20184;-88
2021/09/09 01:18:57;;;;;;;9.43;6.50;;;23.10;1.00;;;;;;5002119;28;20157;-90
2021/09/09 01:21:24;;;;;;;7.90;6.37;;;23.00;24.70;;;;;;5017345;28;20229;-88
2021/09/09 01:23:55;;;;;;;6.97;5.87;;;22.90;99.90;;;;;;4985855;28;20216;-90
2021/09/09 01:26:23;;;;;;;7.43;6.47;;;23.00;99.90;;;;;;5000932;28;20176;-90
2021/09/09 01:28:50;;;;;;;11.67;6.10;;;22.90;99.90;;;;;;5000749;28;20196;-90
2021/09/09 01:31:19;;;;;;;9.00;6.73;;;22.90;99.90;;;;;;5001938;28;20629;-89
2021/09/09 01:33:48;;;;;;;8.97;6.60;;;22.90;99.90;;;;;;4986288;28;20180;-91
2021/09/09 01:36:21;;;;;;;9.10;6.57;;;22.70;99.90;;;;;;4988064;28;20248;-89
2021/09/09 01:38:50;;;;;;;7.70;6.47;;;22.50;1.00;;;;;;4986682;28;20232;-89
2021/09/09 01:41:18;;;;;;;7.80;6.37;;;22.50;1.00;;;;;;4987928;28;20190;-90
2021/09/09 01:43:53;;;;;;;8.17;6.60;;;22.60;1.00;;;;;;4982315;28;20199;-92
2021/09/09 01:46:30;;;;;;;8.13;6.70;;;22.30;1.00;;;;;;4983567;28;20232;-88
2021/09/09 01:49:00;;;;;;;9.10;7.13;;;22.30;1.00;;;;;;4980815;28;20180;-91
2021/09/09 01:54:48;;;;;;;8.30;6.67;;;21.90;1.00;;;;;;5000091;28;20166;-92
2021/09/09 01:57:16;;;;;;;8.60;7.30;;;21.80;1.00;;;;;;4987532;28;20210;-91
2021/09/09 01:59:44;;;;;;;10.00;7.23;;;21.70;1.00;;;;;;4991406;28;20169;-92
2021/09/09 02:02:13;;;;;;;8.87;6.77;;;21.60;1.00;;;;;;4982196;28;20210;-92
2021/09/09 02:05:05;;;;;;;7.50;6.40;;;21.60;1.00;;;;;;4984579;28;20163;-91
2021/09/09 02:07:54;;;;;;;9.73;6.90;;;21.60;1.00;;;;;;4985121;28;20248;-90
2021/09/09 02:10:26;;;;;;;8.37;7.10;;;21.60;1.00;;;;;;4987561;28;20188;-91
2021/09/09 02:12:55;;;;;;;8.80;6.73;;;21.60;1.00;;;;;;4988184;28;20175;-91
2021/09/09 02:15:21;;;;;;;8.53;6.70;;;21.60;1.00;;;;;;4984655;28;20182;-89
2021/09/09 02:17:50;;;;;;;10.33;7.37;;;21.60;1.00;;;;;;4985497;28;20662;-91
2021/09/09 02:20:16;;;;;;;11.57;6.60;;;21.60;1.00;;;;;;5011095;28;20148;-88
2021/09/09 02:22:42;;;;;;;9.83;7.20;;;21.60;1.00;;;;;;5021076;28;20237;-89
2021/09/09 02:25:09;;;;;;;9.33;7.07;;;21.60;1.00;;;;;;5004911;28;20174;-88
2021/09/09 02:27:35;;;;;;;13.73;7.83;;;21.70;1.00;;;;;;5004836;28;20155;-88
2021/09/09 02:30:06;;;;;;;11.20;7.47;;;21.60;1.00;;;;;;4999273;28;20181;-87
2021/09/09 02:32:31;;;;;;;11.17;7.00;;;21.60;1.00;;;;;;5000717;28;20340;-86
2021/09/09 02:34:59;;;;;;;10.80;7.73;;;21.60;1.00;;;;;;5018932;28;20168;-87
2021/09/09 02:37:28;;;;;;;12.07;7.93;;;21.70;1.00;;;;;;4996492;28;20195;-91
2021/09/09 02:43:18;;;;;;;11.00;7.20;;;21.80;1.00;;;;;;5005746;28;20201;-87
2021/09/09 02:45:53;;;;;;;11.60;7.43;;;21.80;1.00;;;;;;5001445;28;20190;-87
2021/09/09 02:48:18;;;;;;;9.23;7.43;;;21.70;1.00;;;;;;5001275;28;20271;-88
2021/09/09 02:50:44;;;;;;;10.60;7.53;;;21.80;1.00;;;;;;4988193;28;20167;-92
2021/09/09 02:53:10;;;;;;;10.10;7.47;;;21.60;1.00;;;;;;4988601;28;20694;-93
2021/09/09 02:55:36;;;;;;;9.57;7.33;;;21.70;1.00;;;;;;4986792;28;20543;-89
2021/09/09 02:58:02;;;;;;;11.83;7.40;;;21.60;1.00;;;;;;5009742;28;20175;-91
2021/09/09 03:00:28;;;;;;;9.63;7.77;;;21.60;1.00;;;;;;4985622;28;20175;-91
2021/09/09 03:02:54;;;;;;;10.40;8.00;;;21.50;1.00;;;;;;5002545;28;20700;-91
2021/09/09 03:05:20;;;;;;;13.27;7.93;;;21.50;1.00;;;;;;4968899;28;20281;-92
2021/09/09 03:07:48;;;;;;;9.07;7.47;;;21.40;1.00;;;;;;4985975;28;20202;-90
2021/09/09 03:10:13;;;;;;;9.47;7.67;;;21.40;1.00;;;;;;4984853;28;20179;-90
2021/09/09 03:12:41;;;;;;;13.13;7.80;;;21.40;1.00;;;;;;4985970;28;20665;-90
2021/09/09 03:15:08;;;;;;;11.20;7.90;;;21.40;1.00;;;;;;5002900;28;20218;-86
2021/09/09 03:17:38;;;;;;;12.00;8.30;;;21.30;1.00;;;;;;5003546;28;20208;-87
2021/09/09 03:20:05;;;;;;;11.30;8.23;;;21.30;1.00;;;;;;5003691;28;20167;-88
2021/09/09 03:25:53;;;;;;;10.20;8.27;;;21.30;1.00;;;;;;5005973;28;20186;-88
2021/09/09 03:28:19;;;;;;;10.17;7.87;;;21.40;1.00;;;;;;5003999;28;20781;-91
2021/09/09 03:30:46;;;;;;;11.47;8.30;;;21.40;1.00;;;;;;4989501;28;20240;-91
2021/09/09 03:33:41;;;;;;;8.93;7.03;;;21.40;1.00;;;;;;5011849;28;20188;-88
2021/09/09 03:36:07;;;;;;;11.57;7.90;;;21.40;1.00;;;;;;5003147;28;20167;-88
2021/09/09 03:38:33;;;;;;;9.20;7.23;;;21.40;1.00;;;;;;5020437;28;20258;-86
2021/09/09 03:41:01;;;;;;;12.27;8.10;;;21.40;1.00;;;;;;5003194;28;20199;-87
2021/09/09 03:43:31;;;;;;;11.47;7.70;;;21.40;1.00;;;;;;5016782;28;20168;-90
2021/09/09 03:46:11;;;;;;;10.30;7.50;;;21.50;1.00;;;;;;5015949;28;20188;-89
2021/09/09 03:48:38;;;;;;;12.20;8.07;;;21.40;1.00;;;;;;4985944;28;20243;-87
2021/09/09 03:51:04;;;;;;;9.20;7.13;;;21.40;1.00;;;;;;5002815;28;20175;-88
2021/09/09 03:53:30;;;;;;;11.63;7.60;;;21.40;1.00;;;;;;5003211;28;20167;-90
2021/09/09 03:55:55;;;;;;;8.90;8.00;;;21.50;1.00;;;;;;5002871;28;20187;-87
2021/09/09 03:58:23;;;;;;;10.37;7.93;;;21.50;1.00;;;;;;5003377;28;20167;-89
2021/09/09 04:01:22;;;;;;;10.07;8.13;;;21.60;1.00;;;;;;5002956;28;20206;-88
2021/09/09 04:04:23;;;;;;;9.33;7.93;;;21.70;1.00;;;;;;5003275;28;20156;-88
2021/09/09 04:07:26;;;;;;;11.23;7.73;;;21.90;1.00;;;;;;5017374;28;20189;-89
2021/09/09 04:09:59;;;;;;;14.77;8.90;;;21.80;1.00;;;;;;5002838;28;20163;-88
2021/09/09 04:12:48;;;;;;;12.83;7.77;;;21.60;5.90;;;;;;5002953;28;20178;-87
2021/09/09 04:18:35;;;;;;;14.23;9.10;;;21.40;20.40;;;;;;5019034;28;20182;-89
2021/09/09 04:21:21;;;;;;;11.40;8.30;;;21.20;31.00;;;;;;4993227;28;20231;-94
2021/09/09 04:23:58;;;;;;;10.37;8.13;;;21.10;35.70;;;;;;5017087;28;20190;-88
2021/09/09 04:29:46;;;;;;;14.23;9.20;;;21.10;43.10;;;;;;5000756;28;20596;-92
2021/09/09 04:35:47;;;;;;;14.27;8.13;;;21.10;47.50;;;;;;5004380;28;20216;-90
2021/09/09 04:38:16;;;;;;;10.53;8.50;;;21.10;47.10;;;;;;4983348;28;20183;-88
2021/09/09 04:41:05;;;;;;;11.77;9.10;;;21.00;49.60;;;;;;4998266;28;20548;-88
2021/09/09 04:43:31;;;;;;;14.07;8.90;;;20.90;52.80;;;;;;4982137;28;20185;-91
2021/09/09 04:45:57;;;;;;;13.17;9.43;;;20.90;55.10;;;;;;4982693;28;20224;-90
2021/09/09 04:48:23;;;;;;;13.97;10.07;;;20.90;55.30;;;;;;4980688;28;20247;-89
2021/09/09 04:50:50;;;;;;;15.90;9.23;;;20.90;56.20;;;;;;4981602;28;20703;-92
2021/09/09 04:53:16;;;;;;;13.40;9.93;;;20.90;56.40;;;;;;4982964;28;20612;-89
2021/09/09 04:55:44;;;;;;;13.73;9.33;;;20.90;57.20;;;;;;4983570;28;20212;-93
2021/09/09 04:58:09;;;;;;;15.63;9.37;;;20.80;58.50;;;;;;4998159;28;20182;-88
2021/09/09 05:00:35;;;;;;;13.77;10.30;;;20.80;60.20;;;;;;4997751;28;20216;-90
2021/09/09 05:03:03;;;;;;;14.93;10.83;;;20.80;61.30;;;;;;5001539;28;20183;-92
2021/09/09 05:05:29;;;;;;;16.00;10.53;;;21.00;59.10;;;;;;4981815;28;20614;-89
2021/09/09 05:07:55;;;;;;;15.43;10.63;;;21.00;59.00;;;;;;4980552;28;20200;-93
2021/09/09 05:10:21;;;;;;;16.23;10.67;;;20.90;62.70;;;;;;4979828;28;20232;-90
2021/09/09 05:12:54;;;;;;;17.47;11.07;;;20.90;64.80;;;;;;4981880;28;20180;-91
2021/09/09 05:15:20;;;;;;;17.30;11.83;;;20.80;66.90;;;;;;4983149;28;20196;-91
2021/09/09 05:17:46;;;;;;;13.53;10.50;;;20.80;68.80;;;;;;4982895;28;20205;-91
2021/09/09 05:20:12;;;;;;;17.63;11.23;;;20.90;69.10;;;;;;4981738;28;20185;-91
2021/09/09 05:22:37;;;;;;;13.67;11.90;;;21.00;68.80;;;;;;4982277;28;20222;-89
2021/09/09 05:25:04;;;;;;;18.37;11.80;;;21.00;68.70;;;;;;4982677;28;20182;-92
2021/09/09 05:27:30;;;;;;;15.33;11.63;;;21.20;67.20;;;;;;4982257;28;20198;-92
2021/09/09 05:29:56;;;;;;;15.00;11.50;;;21.20;69.60;;;;;;4983166;28;20186;-91
2021/09/09 05:32:22;;;;;;;16.13;11.60;;;21.20;71.20;;;;;;4993908;28;20182;-90
2021/09/09 05:34:48;;;;;;;14.77;11.33;;;21.20;70.90;;;;;;4992683;28;20233;-87
2021/09/09 05:37:13;;;;;;;13.60;11.70;;;21.20;72.90;;;;;;4991394;28;20201;-89
2021/09/09 05:39:40;;;;;;;15.00;11.77;;;21.20;73.40;;;;;;4991925;28;20487;-88
2021/09/09 05:42:06;;;;;;;16.67;12.30;;;21.20;73.90;;;;;;4990000;28;20312;-88
2021/09/09 05:44:31;;;;;;;15.93;12.67;;;21.20;73.60;;;;;;4984321;28;20269;-89
2021/09/09 05:47:00;;;;;;;16.37;11.40;;;21.30;73.90;;;;;;4985264;28;20210;-89
2021/09/09 05:49:31;;;;;;;14.73;12.23;;;21.20;75.40;;;;;;4985795;28;20262;-88
2021/09/09 05:51:57;;;;;;;14.43;12.20;;;21.40;73.90;;;;;;5002373;28;20208;-92
2021/09/09 05:54:23;;;;;;;16.70;11.97;;;21.40;72.50;;;;;;5000950;28;20197;-89
2021/09/09 05:56:49;;;;;;;17.73;12.50;;;21.50;72.90;;;;;;4985369;28;20273;-87
2021/09/09 05:59:15;;;;;;;15.97;12.03;;;21.50;72.30;;;;;;4985032;28;20174;-87
2021/09/09 06:01:41;;;;;;;17.80;12.87;;;21.40;75.30;;;;;;5002212;28;20209;-89
2021/09/09 06:04:10;;;;;;;17.83;12.83;;;21.40;77.60;;;;;;4983151;28;20186;-86
2021/09/09 06:06:37;;;;;;;20.60;12.83;;;21.30;78.60;;;;;;4999761;28;20234;-86
2021/09/09 06:09:05;;;;;;;18.63;12.50;;;21.30;79.90;;;;;;5003224;28;20162;-89
2021/09/09 06:11:31;;;;;;;18.27;12.53;;;21.30;80.90;;;;;;5002058;28;20173;-90
2021/09/09 06:13:57;;;;;;;23.63;12.50;;;21.30;81.20;;;;;;5000850;28;20286;-90
2021/09/09 06:16:25;;;;;;;19.50;12.87;;;21.30;81.80;;;;;;4997117;28;20617;-85
2021/09/09 06:18:52;;;;;;;15.80;12.97;;;21.40;82.80;;;;;;4995125;28;20178;-88
2021/09/09 06:21:22;;;;;;;14.90;13.03;;;21.30;84.50;;;;;;5005748;28;20255;-88
2021/09/09 06:23:47;;;;;;;16.37;13.30;;;21.30;86.20;;;;;;5020852;28;20227;-86
2021/09/09 06:26:13;;;;;;;16.70;13.40;;;21.30;86.70;;;;;;5025767;28;20397;-85
2021/09/09 06:28:39;;;;;;;17.47;13.67;;;21.30;87.60;;;;;;5033870;28;20188;-85
2021/09/09 06:31:07;;;;;;;18.93;13.93;;;21.40;86.60;;;;;;5035973;28;20174;-88
2021/09/09 06:33:32;;;;;;;21.47;14.30;;;21.40;86.60;;;;;;5037169;28;20208;-88
2021/09/09 06:35:58;;;;;;;23.03;14.03;;;21.40;86.60;;;;;;5004478;28;20181;-87
2021/09/09 06:38:27;;;;;;;24.27;14.73;;;21.50;85.20;;;;;;5017553;28;20507;-86
2021/09/09 06:41:14;;;;;;;23.03;15.13;;;21.60;83.50;;;;;;5018484;28;20201;-87
2021/09/09 06:43:40;;;;;;;24.43;13.83;;;21.50;85.30;;;;;;5002883;28;20178;-86
2021/09/09 06:46:05;;;;;;;19.70;13.83;;;21.50;87.20;;;;;;5001935;28;20181;-86
2021/09/09 06:48:34;;;;;;;17.67;13.80;;;21.40;88.70;;;;;;4998904;28;20280;-88
2021/09/09 06:51:03;;;;;;;21.57;13.60;;;21.60;85.50;;;;;;5001292;28;20208;-86
2021/09/09 06:53:30;;;;;;;17.67;13.00;;;21.60;86.50;;;;;;4998093;28;20177;-85
2021/09/09 06:55:56;;;;;;;14.77;13.27;;;21.60;86.50;;;;;;4992334;28;20178;-87
2021/09/09 06:58:23;;;;;;;19.87;13.97;;;21.60;85.60;;;;;;4990246;28;20171;-86
2021/09/09 07:00:50;;;;;;;17.90;13.70;;;21.60;87.20;;;;;;5000524;28;20313;-87
2021/09/09 07:03:18;;;;;;;19.03;14.60;;;21.70;86.20;;;;;;4992143;28;20173;-86
2021/09/09 07:05:44;;;;;;;16.83;14.13;;;21.80;85.40;;;;;;4995258;28;20182;-86
2021/09/09 07:08:10;;;;;;;17.57;14.43;;;21.80;84.20;;;;;;5002873;28;20184;-87
2021/09/09 07:10:35;;;;;;;16.13;13.37;;;21.80;85.70;;;;;;5000339;28;20185;-86
2021/09/09 07:13:04;;;;;;;17.03;13.00;;;21.80;85.60;;;;;;4983017;28;20175;-86
2021/09/09 07:15:30;;;;;;;16.13;13.80;;;21.70;86.50;;;;;;5016039;28;20204;-87
2021/09/09 07:17:55;;;;;;;16.57;13.73;;;21.80;85.60;;;;;;5019078;28;20224;-86
2021/09/09 07:20:21;;;;;;;15.97;12.97;;;21.80;85.20;;;;;;5017704;28;20634;-85
2021/09/09 07:22:47;;;;;;;16.37;13.20;;;21.80;84.90;;;;;;5000566;28;20225;-85
2021/09/09 07:25:14;;;;;;;13.50;11.70;;;21.80;86.30;;;;;;5000876;28;20174;-84
2021/09/09 07:27:40;;;;;;;15.43;12.20;;;21.90;85.60;;;;;;5003424;28;20196;-87
2021/09/09 07:30:07;;;;;;;13.50;12.07;;;22.00;84.40;;;;;;5002240;28;20595;-85
2021/09/09 07:32:35;;;;;;;16.87;12.97;;;22.10;84.00;;;;;;4996200;28;20192;-85
2021/09/09 07:35:01;;;;;;;14.10;11.83;;;22.30;81.50;;;;;;5009872;28;20192;-86
2021/09/09 07:37:27;;;;;;;16.17;11.93;;;22.40;79.00;;;;;;4982328;28;20313;-86
2021/09/09 07:39:53;;;;;;;20.87;12.97;;;22.40;78.40;;;;;;4979901;28;20179;-86
2021/09/09 07:42:18;;;;;;;14.47;11.67;;;22.50;77.60;;;;;;4990907;28;20273;-86
2021/09/09 07:44:45;;;;;;;13.83;11.33;;;22.60;76.20;;;;;;4980402;28;20180;-86
2021/09/09 07:47:11;;;;;;;15.53;11.83;;;22.70;74.90;;;;;;4983812;28;20190;-86
2021/09/09 07:49:37;;;;;;;14.30;12.53;;;22.60;75.00;;;;;;4994571;28;20189;-86
2021/09/09 07:52:03;;;;;;;14.50;12.63;;;22.60;76.00;;;;;;4998181;28;20185;-86
2021/09/09 07:54:29;;;;;;;16.43;11.70;;;22.50;77.40;;;;;;4985739;28;20170;-86
2021/09/09 07:56:54;;;;;;;13.97;11.83;;;22.50;79.50;;;;;;4989281;28;20232;-88
2021/09/09 07:59:20;;;;;;;13.03;11.73;;;22.50;79.70;;;;;;5000056;28;20190;-88
2021/09/09 08:01:46;;;;;;;13.80;12.23;;;22.50;78.90;;;;;;5009499;28;20221;-87
2021/09/09 08:04:16;;;;;;;17.23;12.77;;;22.40;81.20;;;;;;4981651;28;20665;-88
2021/09/09 08:06:45;;;;;;;14.53;11.43;;;22.50;82.70;;;;;;5007655;28;20175;-89
2021/09/09 08:09:11;;;;;;;13.53;11.27;;;22.70;76.10;;;;;;5000238;28;20173;-86
2021/09/09 08:11:40;;;;;;;14.73;11.50;;;22.80;73.80;;;;;;5020744;28;20251;-86
2021/09/09 08:14:06;;;;;;;15.00;10.90;;;22.90;74.50;;;;;;5000204;28;20179;-84
2021/09/09 08:16:33;;;;;;;13.43;10.87;;;23.10;71.10;;;;;;5029757;28;20209;-87
2021/09/09 08:18:58;;;;;;;14.33;11.53;;;23.00;72.40;;;;;;5020128;28;20174;-87
2021/09/09 08:21:26;;;;;;;13.43;12.03;;;23.10;71.10;;;;;;5036424;28;20233;-90
2021/09/09 08:23:52;;;;;;;13.33;11.37;;;23.10;70.60;;;;;;5035377;28;20195;-86
2021/09/09 08:26:18;;;;;;;16.57;12.17;;;23.10;70.10;;;;;;5036272;28;20185;-88
2021/09/09 08:28:44;;;;;;;13.00;10.73;;;23.30;69.00;;;;;;5035275;28;20246;-85
2021/09/09 08:31:10;;;;;;;12.80;11.50;;;23.50;64.90;;;;;;5035698;28;20168;-84
2021/09/09 08:33:38;;;;;;;13.13;10.90;;;23.60;62.30;;;;;;5019514;28;20163;-86
2021/09/09 08:36:08;;;;;;;16.70;11.03;;;23.60;61.50;;;;;;5019409;28;20197;-86
2021/09/09 08:38:34;;;;;;;15.73;10.50;;;23.60;62.00;;;;;;5019010;28;20236;-86
2021/09/09 08:41:02;;;;;;;11.33;10.17;;;23.80;61.20;;;;;;5016048;28;20201;-87
2021/09/09 08:43:29;;;;;;;12.57;11.13;;;24.00;57.70;;;;;;5009589;28;20175;-87
2021/09/09 08:45:59;;;;;;;15.07;10.27;;;24.10;54.90;;;;;;5015482;28;20224;-85
2021/09/09 08:48:27;;;;;;;11.77;10.20;;;24.10;53.00;;;;;;5033038;28;20181;-85
2021/09/09 08:50:53;;;;;;;11.93;9.80;;;24.20;51.40;;;;;;5027513;28;20173;-87
2021/09/09 08:53:20;;;;;;;13.87;11.13;;;24.20;49.10;;;;;;5015094;28;20192;-88
2021/09/09 08:55:47;;;;;;;12.47;11.17;;;24.10;49.70;;;;;;5036618;28;20256;-84
2021/09/09 08:58:13;;;;;;;11.40;10.20;;;24.10;50.40;;;;;;5033594;28;20268;-88
2021/09/09 09:01:17;;;;;;;12.07;10.87;;;24.20;46.20;;;;;;5019431;28;20243;-86
2021/09/09 09:03:49;;;;;;;13.77;10.80;;;24.10;48.20;;;;;;5036179;28;20183;-88
2021/09/09 09:06:30;;;;;;;12.93;11.57;;;24.00;51.30;;;;;;5035097;28;20170;-88
2021/09/09 09:09:33;;;;;;;15.10;11.57;;;23.80;56.00;;;;;;5019982;28;20176;-88
2021/09/09 09:12:09;;;;;;;12.87;11.57;;;23.60;60.50;;;;;;5020118;28;20187;-88
2021/09/09 09:14:35;;;;;;;12.97;11.57;;;23.30;67.40;;;;;;5000206;28;20185;-85
2021/09/09 09:17:20;;;;;;;15.40;12.03;;;23.50;66.90;;;;;;5001193;28;20206;-86
2021/09/09 09:19:46;;;;;;;14.97;11.03;;;23.80;63.20;;;;;;5035719;28;20697;-86
2021/09/09 09:22:14;;;;;;;13.07;11.67;;;23.90;61.10;;;;;;5029291;28;20279;-87
2021/09/09 09:24:51;;;;;;;15.33;11.03;;;24.10;58.90;;;;;;5016120;28;20175;-88
2021/09/09 09:27:20;;;;;;;12.47;11.23;;;24.20;55.90;;;;;;5035201;28;20216;-87
2021/09/09 09:30:08;;;;;;;13.37;12.00;;;24.20;54.50;;;;;;5001887;28;20196;-88
2021/09/09 09:32:48;;;;;;;12.67;11.43;;;24.00;55.60;;;;;;5007364;28;20317;-86
2021/09/09 09:35:20;;;;;;;14.63;11.83;;;24.00;55.80;;;;;;5010928;28;20189;-85
2021/09/09 09:41:11;;;;;;;12.97;11.40;;;24.20;56.10;;;;;;5030471;28;20235;-86
2021/09/09 09:43:51;;;;;;;14.43;10.50;;;24.60;52.30;;;;;;5030716;28;20230;-88
2021/09/09 09:46:37;;;;;;;13.07;10.97;;;24.80;43.60;;;;;;5017024;28;20187;-89
2021/09/09 09:49:25;;;;;;;14.37;11.53;;;24.80;41.10;;;;;;5023361;28;20215;-90
2021/09/09 09:51:56;;;;;;;12.77;10.80;;;24.90;40.60;;;;;;5005790;28;20173;-89
2021/09/09 09:54:24;;;;;;;13.10;11.03;;;25.00;35.90;;;;;;4996974;28;20178;-90
2021/09/09 09:56:57;;;;;;;13.13;9.93;;;24.80;40.10;;;;;;5005917;28;20204;-89
2021/09/09 09:59:23;;;;;;;14.83;9.53;;;24.70;42.10;;;;;;5010563;28;20196;-88
2021/09/09 10:01:54;;;;;;;14.13;9.53;;;24.70;42.10;;;;;;5007046;28;20232;-90
2021/09/09 10:04:22;;;;;;;12.17;10.00;;;24.90;37.40;;;;;;4993610;28;20279;-90
2021/09/09 10:06:51;;;;;;;11.13;8.67;;;25.20;28.70;;;;;;4998715;28;20177;-88
2021/09/09 10:09:18;;;;;;;13.90;8.90;;;25.50;24.60;;;;;;5017333;28;20181;-89
2021/09/09 10:11:45;;;;;;;12.13;8.10;;;25.70;20.00;;;;;;5017100;28;20194;-85
2021/09/09 10:14:21;;;;;;;9.37;8.13;;;26.00;12.40;;;;;;5017225;28;20172;-89
2021/09/09 10:16:48;;;;;;;11.43;8.17;;;26.10;9.80;;;;;;5018959;28;20197;-89
2021/09/09 10:19:30;;;;;;;11.13;8.00;;;26.00;5.80;;;;;;5017344;28;20176;-85
2021/09/09 10:22:05;;;;;;;8.47;7.60;;;26.00;2.80;;;;;;5017465;28;20277;-88
2021/09/09 10:24:33;;;;;;;13.70;8.60;;;25.90;10.40;;;;;;5018149;28;20190;-88
2021/09/09 10:27:21;;;;;;;12.20;7.87;;;25.80;12.30;;;;;;5018841;28;20732;-87
2021/09/09 10:30:03;;;;;;;11.60;8.00;;;25.90;7.00;;;;;;5002336;28;20177;-88
2021/09/09 10:32:48;;;;;;;9.50;7.13;;;25.90;4.20;;;;;;5003563;28;20190;-88
2021/09/09 10:35:30;;;;;;;10.47;8.00;;;25.90;5.90;;;;;;5000400;28;20167;-89
2021/09/09 10:37:59;;;;;;;10.33;8.33;;;25.80;6.00;;;;;;5028194;28;20249;-90
2021/09/09 10:40:31;;;;;;;12.23;9.40;;;25.80;9.30;;;;;;5001048;28;20183;-88
2021/09/09 10:42:59;;;;;;;10.23;9.13;;;25.60;13.80;;;;;;4998438;28;20207;-88
2021/09/09 10:45:34;;;;;;;9.50;8.43;;;25.50;16.00;;;;;;4997911;28;20178;-88
2021/09/09 10:48:08;;;;;;;15.13;8.87;;;25.60;13.60;;;;;;4999045;28;20170;-89
2021/09/09 10:50:38;;;;;;;9.53;8.53;;;25.70;15.50;;;;;;5005419;28;20317;-88
2021/09/09 10:53:12;;;;;;;10.93;9.20;;;26.00;8.00;;;;;;4984321;28;20216;-88
2021/09/09 10:55:43;;;;;;;12.97;9.37;;;26.00;5.30;;;;;;5005712;28;20691;-89
2021/09/09 10:58:14;;;;;;;10.70;8.63;;;26.00;5.10;;;;;;5007211;28;20639;-87
2021/09/09 11:01:02;;;;;;;11.80;8.53;;;25.90;7.50;;;;;;5003457;28;20171;-88
2021/09/09 11:03:42;;;;;;;12.80;9.40;;;25.90;9.60;;;;;;4982239;28;20550;-88
2021/09/09 11:06:22;;;;;;;14.97;10.60;;;25.70;13.70;;;;;;4981852;28;20226;-89
2021/09/09 11:08:57;;;;;;;11.23;9.17;;;25.40;23.00;;;;;;4980639;28;20281;-89
2021/09/09 11:11:25;;;;;;;11.67;8.50;;;25.40;25.50;;;;;;4982143;28;20197;-90
2021/09/09 11:14:00;;;;;;;12.10;8.77;;;25.40;25.80;;;;;;4999697;28;20657;-90
2021/09/09 11:16:31;;;;;;;12.93;8.50;;;25.50;23.70;;;;;;4990642;28;20198;-89
2021/09/09 11:18:57;;;;;;;19.10;11.30;;;25.60;22.10;;;;;;5010023;28;20184;-90
2021/09/09 11:21:26;;;;;;;13.50;10.60;;;25.80;19.70;;;;;;4982483;28;20215;-90
2021/09/09 11:23:59;;;;;;;12.87;8.93;;;25.80;16.90;;;;;;4980178;28;20194;-89
2021/09/09 11:26:26;;;;;;;12.13;8.57;;;25.80;18.40;;;;;;4981308;28;20245;-89
2021/09/09 11:28:52;;;;;;;10.47;9.37;;;25.80;20.40;;;;;;4980915;28;20243;-88
2021/09/09 11:31:22;;;;;;;10.60;9.50;;;25.80;19.60;;;;;;4985132;28;20170;-89
2021/09/09 11:33:59;;;;;;;11.83;8.77;;;25.80;19.30;;;;;;5016326;28;20175;-89
2021/09/09 11:36:27;;;;;;;11.73;9.23;;;25.80;17.60;;;;;;5016145;28;20186;-91
2021/09/09 11:38:55;;;;;;;10.13;9.03;;;25.80;18.40;;;;;;5010870;28;20187;-88
2021/09/09 11:41:23;;;;;;;10.73;8.40;;;25.90;16.00;;;;;;5010972;28;20304;-87
2021/09/09 11:43:59;;;;;;;10.37;7.53;;;26.00;6.70;;;;;;5014389;28;20182;-89
2021/09/09 11:46:49;;;;;;;10.73;7.63;;;25.80;2.30;;;;;;5019287;28;20178;-87
2021/09/09 11:49:15;;;;;;;8.73;7.77;;;25.80;6.10;;;;;;5018040;28;20172;-87
2021/09/09 11:51:49;;;;;;;10.07;9.03;;;25.50;9.90;;;;;;5017691;28;20538;-90
2021/09/09 11:54:20;;;;;;;10.93;8.10;;;25.20;21.80;;;;;;5016274;28;20176;-89
2021/09/09 11:56:49;;;;;;;8.87;6.87;;;25.30;21.70;;;;;;5015643;28;20202;-88
2021/09/09 11:59:19;;;;;;;9.80;7.83;;;25.60;4.20;;;;;;5013654;28;20184;-88
2021/09/09 12:02:06;;;;;;;11.00;8.97;;;25.80;3.50;;;;;;5017003;28;20202;-89
2021/09/09 12:04:42;;;;;;;12.67;9.80;;;26.00;2.00;;;;;;5027122;28;20194;-87
2021/09/09 12:07:15;;;;;;;10.63;8.50;;;26.00;5.70;;;;;;5009195;28;20186;-90
2021/09/09 12:10:02;;;;;;;9.20;7.63;;;26.10;1.00;;;;;;4990500;28;20175;-88
2021/09/09 12:12:35;;;;;;;18.00;9.00;;;26.30;1.00;;;;;;5006498;28;20255;-88
2021/09/09 12:15:08;;;;;;;10.90;8.60;;;26.40;1.00;;;;;;5011508;28;20197;-88
2021/09/09 12:17:35;;;;;;;14.53;10.10;;;26.60;1.00;;;;;;5006805;28;20229;-88
2021/09/09 12:20:11;;;;;;;13.17;10.30;;;26.70;1.00;;;;;;5008158;28;20230;-87
2021/09/09 12:22:53;;;;;;;14.67;10.47;;;26.70;1.00;;;;;;4997226;28;20221;-88
2021/09/09 12:25:19;;;;;;;16.10;10.80;;;26.70;1.00;;;;;;4995621;28;20167;-87
2021/09/09 12:28:11;;;;;;;16.87;10.80;;;26.70;1.00;;;;;;5006480;28;20175;-86
2021/09/09 12:30:38;;;;;;;11.90;10.70;;;27.10;1.00;;;;;;4983510;28;20207;-88
2021/09/09 12:33:24;;;;;;;11.03;9.00;;;26.90;1.00;;;;;;5002303;28;20173;-87
2021/09/09 12:36:12;;;;;;;12.40;9.43;;;26.80;1.00;;;;;;5022311;28;20186;-88
2021/09/09 12:38:42;;;;;;;9.87;8.47;;;26.90;1.00;;;;;;5020358;28;20237;-88
2021/09/09 12:41:17;;;;;;;11.30;8.80;;;27.10;1.00;;;;;;5015996;28;20209;-88
2021/09/09 12:43:50;;;;;;;12.37;9.77;;;27.10;1.00;;;;;;5015405;28;20179;-89
2021/09/09 12:46:36;;;;;;;10.47;8.27;;;27.00;1.00;;;;;;5014120;28;20210;-87
2021/09/09 12:49:18;;;;;;;11.37;7.37;;;26.60;1.00;;;;;;5017738;28;20272;-89
2021/09/09 12:51:48;;;;;;;9.10;6.80;;;26.70;1.00;;;;;;5007345;28;20185;-90
2021/09/09 12:54:16;;;;;;;6.77;6.07;;;27.10;1.00;;;;;;5013202;28;20253;-89
2021/09/09 12:56:48;;;;;;;7.43;6.53;;;27.40;1.00;;;;;;5011093;28;20182;-89
2021/09/09 12:59:14;;;;;;;8.13;5.30;;;27.60;1.00;;;;;;4997354;28;20573;-88
2021/09/09 13:01:39;;;;;;;6.43;5.10;;;27.40;1.00;;;;;;5008628;28;20202;-87
2021/09/09 13:04:05;;;;;;;6.57;5.00;;;27.50;1.00;;;;;;4978037;28;20175;-89
2021/09/09 13:06:31;;;;;;;7.50;5.53;;;27.70;1.00;;;;;;4978175;28;20174;-89
2021/09/09 13:08:57;;;;;;;7.07;5.57;;;27.70;1.00;;;;;;4995635;28;20183;-89
2021/09/09 13:11:22;;;;;;;8.63;6.30;;;27.70;1.00;;;;;;4979716;28;20202;-90
2021/09/09 13:13:48;;;;;;;9.67;6.73;;;27.50;1.00;;;;;;4978699;28;20182;-90
2021/09/09 13:16:14;;;;;;;7.37;6.27;;;27.40;1.00;;;;;;4979483;28;20356;-88
2021/09/09 13:18:42;;;;;;;10.47;6.47;;;27.40;1.00;;;;;;4995249;28;20198;-89
2021/09/09 13:21:15;;;;;;;9.17;6.10;;;27.40;1.00;;;;;;4978321;28;20202;-88
2021/09/09 13:23:42;;;;;;;8.27;6.53;;;27.50;1.00;;;;;;4981909;28;20216;-88
2021/09/09 13:26:11;;;;;;;7.43;5.50;;;27.40;1.00;;;;;;4995188;28;20187;-88
2021/09/09 13:28:41;;;;;;;7.70;5.73;;;27.40;1.00;;;;;;4977498;28;20204;-87
2021/09/09 13:31:15;;;;;;;7.40;5.87;;;27.50;1.00;;;;;;4995699;28;20218;-87
2021/09/09 13:33:41;;;;;;;6.43;5.80;;;27.50;1.00;;;;;;4978449;28;20245;-86